Terminal Aerodrome Forecast
Issued by NWS Bismarck, ND

Home | Current Version | Previous Version | Text Only | Print | Product List | Glossary Off
Versions: 1 2 3 4 5 6 7 8 9 10 11 12 13 14 15 16 17 18 19 20 21

000
FTUS43 KBIS 310530
TAFISN
TAF
KISN 310530Z 3106/0106 28007KT P6SM VCSH OVC025
     FM311200 29013G22KT 3SM SHRA OVC008
     FM311700 34017G26KT 5SM SHRA VCTS OVC010CB
     FM010000 34019G27KT P6SM -SHRA OVC020
     FM010300 33010KT P6SM BKN035=

USA.gov is the U.S. government's official web portal to all federal, state and local government web resources and services.